sensor_id;sensor_type;location;lat;lon;timestamp;pressure;altitude;pressure_sealevel;temperature;humidity
84283;BME280;74440;52.600;21.450;2024-01-25T00:00:30;100300;;;5.71;77
84283;BME280;74440;52.600;21.450;2024-01-25T00:04:36;100300;;;5.74;77
84283;BME280;74440;52.600;21.450;2024-01-25T00:08:38;100300;;;5.81;77
84283;BME280;74440;52.600;21.450;2024-01-25T00:12:40;100300;;;5.88;76
84283;BME280;74440;52.600;21.450;2024-01-25T00:16:42;100300;;;5.75;77
84283;BME280;74440;52.600;21.450;2024-01-25T00:20:44;100300;;;5.80;76
84283;BME280;74440;52.600;21.450;2024-01-25T00:24:45;100300;;;5.85;76
84283;BME280;74440;52.600;21.450;2024-01-25T00:28:47;100300;;;5.92;76
84283;BME280;74440;52.600;21.450;2024-01-25T00:32:58;100300;;;5.93;76
84283;BME280;74440;52.600;21.450;2024-01-25T00:37:01;100300;;;5.80;76
84283;BME280;74440;52.600;21.450;2024-01-25T00:41:05;100300;;;5.82;76
84283;BME280;74440;52.600;21.450;2024-01-25T00:45:10;100300;;;5.85;76
84283;BME280;74440;52.600;21.450;2024-01-25T00:49:13;100300;;;5.90;76
84283;BME280;74440;52.600;21.450;2024-01-25T00:53:30;100300;;;5.89;75
84283;BME280;74440;52.600;21.450;2024-01-25T00:57:34;100300;;;5.75;76
84283;BME280;74440;52.600;21.450;2024-01-25T01:01:36;100300;;;5.79;75
84283;BME280;74440;52.600;21.450;2024-01-25T01:05:38;100300;;;5.83;75
84283;BME280;74440;52.600;21.450;2024-01-25T01:09:40;100300;;;5.88;75
84283;BME280;74440;52.600;21.450;2024-01-25T01:13:42;100300;;;5.73;75
84283;BME280;74440;52.600;21.450;2024-01-25T01:17:43;100300;;;5.76;75
84283;BME280;74440;52.600;21.450;2024-01-25T01:21:45;100300;;;5.80;75
84283;BME280;74440;52.600;21.450;2024-01-25T01:25:47;100300;;;5.85;75
84283;BME280;74440;52.600;21.450;2024-01-25T01:29:59;100300;;;5.87;75
84283;BME280;74440;52.600;21.450;2024-01-25T01:34:00;100300;;;5.72;76
84283;BME280;74440;52.600;21.450;2024-01-25T01:38:02;100300;;;5.73;76
84283;BME280;74440;52.600;21.450;2024-01-25T01:42:04;100300;;;5.74;76
84283;BME280;74440;52.600;21.450;2024-01-25T01:46:18;100300;;;5.73;77
84283;BME280;74440;52.600;21.450;2024-01-25T01:50:30;100300;;;5.64;78
84283;BME280;74440;52.600;21.450;2024-01-25T01:54:32;100300;;;5.44;78
84283;BME280;74440;52.600;21.450;2024-01-25T01:58:34;100300;;;5.42;79
84283;BME280;74440;52.600;21.450;2024-01-25T02:02:36;100300;;;5.43;79
84283;BME280;74440;52.600;21.450;2024-01-25T02:06:38;100300;;;5.49;79
84283;BME280;74440;52.600;21.450;2024-01-25T02:10:40;100300;;;5.26;79
84283;BME280;74440;52.600;21.450;2024-01-25T02:14:42;100300;;;5.25;80
84283;BME280;74440;52.600;21.450;2024-01-25T02:18:43;100300;;;5.28;80
84283;BME280;74440;52.600;21.450;2024-01-25T02:22:45;100300;;;5.33;80
84283;BME280;74440;52.600;21.450;2024-01-25T02:26:59;100300;;;5.35;80
84283;BME280;74440;52.600;21.450;2024-01-25T02:31:02;100300;;;5.19;80
84283;BME280;74440;52.600;21.450;2024-01-25T02:35:04;100300;;;5.20;80
84283;BME280;74440;52.600;21.450;2024-01-25T02:39:06;100300;;;5.23;80
84283;BME280;74440;52.600;21.450;2024-01-25T02:43:07;100300;;;5.30;80
84283;BME280;74440;52.600;21.450;2024-01-25T02:47:09;100300;;;5.13;80
84283;BME280;74440;52.600;21.450;2024-01-25T02:51:10;100300;;;5.13;80
84283;BME280;74440;52.600;21.450;2024-01-25T02:55:12;100300;;;5.17;80
84283;BME280;74440;52.600;21.450;2024-01-25T02:59:14;100300;;;5.20;80
84283;BME280;74440;52.600;21.450;2024-01-25T03:03:29;100300;;;5.20;81
84283;BME280;74440;52.600;21.450;2024-01-25T03:07:30;100300;;;5.03;81
84283;BME280;74440;52.600;21.450;2024-01-25T03:11:32;100300;;;5.04;81
84283;BME280;74440;52.600;21.450;2024-01-25T03:15:33;100300;;;5.09;81
84283;BME280;74440;52.600;21.450;2024-01-25T03:19:35;100300;;;5.16;80
84283;BME280;74440;52.600;21.450;2024-01-25T03:23:37;100300;;;4.97;81
84283;BME280;74440;52.600;21.450;2024-01-25T03:27:40;100300;;;4.97;81
84283;BME280;74440;52.600;21.450;2024-01-25T03:31:41;100300;;;5.00;81
84283;BME280;74440;52.600;21.450;2024-01-25T03:35:43;100300;;;5.04;81
84283;BME280;74440;52.600;21.450;2024-01-25T03:39:58;100300;;;5.04;81
84283;BME280;74440;52.600;21.450;2024-01-25T03:43:59;100300;;;4.87;81
84283;BME280;74440;52.600;21.450;2024-01-25T03:48:01;100300;;;4.88;82
84283;BME280;74440;52.600;21.450;2024-01-25T03:52:04;100300;;;4.92;81
84283;BME280;74440;52.600;21.450;2024-01-25T03:56:11;100300;;;4.98;81
84283;BME280;74440;52.600;21.450;2024-01-25T04:00:29;100300;;;4.96;82
84283;BME280;74440;52.600;21.450;2024-01-25T04:04:31;100300;;;4.82;82
84283;BME280;74440;52.600;21.450;2024-01-25T04:08:32;100300;;;4.83;82
84283;BME280;74440;52.600;21.450;2024-01-25T04:12:34;100300;;;4.88;82
84283;BME280;74440;52.600;21.450;2024-01-25T04:16:36;100300;;;4.92;82
84283;BME280;74440;52.600;21.450;2024-01-25T04:20:37;100300;;;4.75;82
84283;BME280;74440;52.600;21.450;2024-01-25T04:24:39;100300;;;4.78;81
84283;BME280;74440;52.600;21.450;2024-01-25T04:28:41;100300;;;4.83;81
84283;BME280;74440;52.600;21.450;2024-01-25T04:32:43;100400;;;4.90;81
84283;BME280;74440;52.600;21.450;2024-01-25T04:36:58;100400;;;4.94;81
84283;BME280;74440;52.600;21.450;2024-01-25T04:41:00;100400;;;4.80;81
84283;BME280;74440;52.600;21.450;2024-01-25T04:45:02;100400;;;4.84;81
84283;BME280;74440;52.600;21.450;2024-01-25T04:49:03;100400;;;4.87;81
84283;BME280;74440;52.600;21.450;2024-01-25T04:53:05;100400;;;4.94;81
84283;BME280;74440;52.600;21.450;2024-01-25T04:57:06;100400;;;4.79;81
84283;BME280;74440;52.600;21.450;2024-01-25T05:01:08;100400;;;4.84;81
84283;BME280;74440;52.600;21.450;2024-01-25T05:05:10;100400;;;4.90;80
84283;BME280;74440;52.600;21.450;2024-01-25T05:09:11;100400;;;4.96;80
84283;BME280;74440;52.600;21.450;2024-01-25T05:13:27;100400;;;4.95;80
84283;BME280;74440;52.600;21.450;2024-01-25T05:17:29;100400;;;4.81;80
84283;BME280;74440;52.600;21.450;2024-01-25T05:21:31;100400;;;4.84;80
84283;BME280;74440;52.600;21.450;2024-01-25T05:25:32;100400;;;4.89;80
84283;BME280;74440;52.600;21.450;2024-01-25T05:29:34;100400;;;4.95;80
84283;BME280;74440;52.600;21.450;2024-01-25T05:33:35;100400;;;4.78;80
84283;BME280;74440;52.600;21.450;2024-01-25T05:37:37;100400;;;4.79;80
84283;BME280;74440;52.600;21.450;2024-01-25T05:41:39;100400;;;4.83;80
84283;BME280;74440;52.600;21.450;2024-01-25T05:45:40;100400;;;4.88;80
84283;BME280;74440;52.600;21.450;2024-01-25T05:49:57;100400;;;4.89;80
84283;BME280;74440;52.600;21.450;2024-01-25T05:53:58;100400;;;4.73;81
84283;BME280;74440;52.600;21.450;2024-01-25T05:58:00;100400;;;4.76;80
84283;BME280;74440;52.600;21.450;2024-01-25T06:02:02;100400;;;4.81;80
84283;BME280;74440;52.600;21.450;2024-01-25T06:06:03;100400;;;4.86;80
84283;BME280;74440;52.600;21.450;2024-01-25T06:10:06;100400;;;4.70;80
84283;BME280;74440;52.600;21.450;2024-01-25T06:14:08;100400;;;4.70;80
84283;BME280;74440;52.600;21.450;2024-01-25T06:18:10;100400;;;4.77;80
84283;BME280;74440;52.600;21.450;2024-01-25T06:22:11;100400;;;4.83;80
84283;BME280;74440;52.600;21.450;2024-01-25T06:26:26;100400;;;4.83;80
84283;BME280;74440;52.600;21.450;2024-01-25T06:30:28;100400;;;4.69;80
84283;BME280;74440;52.600;21.450;2024-01-25T06:34:29;100400;;;4.72;80
84283;BME280;74440;52.600;21.450;2024-01-25T06:38:31;100400;;;4.74;80
84283;BME280;74440;52.600;21.450;2024-01-25T06:42:32;100400;;;4.84;80
84283;BME280;74440;52.600;21.450;2024-01-25T06:46:34;100400;;;4.66;81
84283;BME280;74440;52.600;21.450;2024-01-25T06:50:35;100400;;;4.70;81
84283;BME280;74440;52.600;21.450;2024-01-25T06:54:37;100400;;;4.74;80
84283;BME280;74440;52.600;21.450;2024-01-25T06:58:38;100400;;;4.80;80
84283;BME280;74440;52.600;21.450;2024-01-25T07:02:55;100500;;;4.83;81
84283;BME280;74440;52.600;21.450;2024-01-25T07:06:57;100500;;;4.65;81
84283;BME280;74440;52.600;21.450;2024-01-25T07:11:00;100500;;;4.69;81
84283;BME280;74440;52.600;21.450;2024-01-25T07:15:03;100500;;;4.71;81
84283;BME280;74440;52.600;21.450;2024-01-25T07:19:05;100500;;;4.80;81
84283;BME280;74440;52.600;21.450;2024-01-25T07:23:06;100500;;;4.62;81
84283;BME280;74440;52.600;21.450;2024-01-25T07:27:09;100500;;;4.67;81
84283;BME280;74440;52.600;21.450;2024-01-25T07:31:11;100500;;;4.74;81
84283;BME280;74440;52.600;21.450;2024-01-25T07:35:13;100500;;;4.82;81
84283;BME280;74440;52.600;21.450;2024-01-25T07:39:24;100500;;;4.83;81
84283;BME280;74440;52.600;21.450;2024-01-25T07:43:26;100500;;;4.70;82
84283;BME280;74440;52.600;21.450;2024-01-25T07:47:27;100500;;;4.74;81
84283;BME280;74440;52.600;21.450;2024-01-25T07:51:29;100500;;;4.79;81
84283;BME280;74440;52.600;21.450;2024-01-25T07:55:31;100500;;;4.87;82
84283;BME280;74440;52.600;21.450;2024-01-25T07:59:32;100500;;;4.73;82
84283;BME280;74440;52.600;21.450;2024-01-25T08:03:34;100500;;;4.74;82
84283;BME280;74440;52.600;21.450;2024-01-25T08:07:36;100500;;;4.80;82
84283;BME280;74440;52.600;21.450;2024-01-25T08:11:41;100500;;;4.86;82
84283;BME280;74440;52.600;21.450;2024-01-25T08:15:54;100500;;;4.92;82
84283;BME280;74440;52.600;21.450;2024-01-25T08:19:56;100500;;;4.84;82
84283;BME280;74440;52.600;21.450;2024-01-25T08:23:58;100500;;;4.92;81
84283;BME280;74440;52.600;21.450;2024-01-25T08:28:00;100500;;;5.03;81
84283;BME280;74440;52.600;21.450;2024-01-25T08:32:01;100500;;;5.14;81
84283;BME280;74440;52.600;21.450;2024-01-25T08:36:04;100500;;;4.99;81
84283;BME280;74440;52.600;21.450;2024-01-25T08:40:06;100500;;;5.02;81
84283;BME280;74440;52.600;21.450;2024-01-25T08:44:10;100500;;;5.07;81
84283;BME280;74440;52.600;21.450;2024-01-25T08:48:12;100600;;;5.14;80
84283;BME280;74440;52.600;21.450;2024-01-25T08:52:23;100500;;;5.13;81
84283;BME280;74440;52.600;21.450;2024-01-25T08:56:25;100600;;;5.05;81
84283;BME280;74440;52.600;21.450;2024-01-25T09:00:26;100500;;;5.11;80
84283;BME280;74440;52.600;21.450;2024-01-25T09:04:28;100600;;;5.19;80
84283;BME280;74440;52.600;21.450;2024-01-25T09:08:30;100600;;;5.25;80
84283;BME280;74440;52.600;21.450;2024-01-25T09:12:31;100600;;;5.11;81
84283;BME280;74440;52.600;21.450;2024-01-25T09:16:33;100600;;;5.15;81
84283;BME280;74440;52.600;21.450;2024-01-25T09:20:35;100600;;;5.20;81
84283;BME280;74440;52.600;21.450;2024-01-25T09:24:37;100600;;;5.32;80
84283;BME280;74440;52.600;21.450;2024-01-25T09:28:52;100600;;;5.42;80
84283;BME280;74440;52.600;21.450;2024-01-25T09:32:54;100600;;;5.39;80
84283;BME280;74440;52.600;21.450;2024-01-25T09:36:55;100600;;;5.49;80
84283;BME280;74440;52.600;21.450;2024-01-25T09:40:57;100600;;;5.55;79
84283;BME280;74440;52.600;21.450;2024-01-25T09:44:58;100600;;;5.60;79
84283;BME280;74440;52.600;21.450;2024-01-25T09:49:00;100600;;;5.44;79
84283;BME280;74440;52.600;21.450;2024-01-25T09:53:03;100600;;;5.47;79
84283;BME280;74440;52.600;21.450;2024-01-25T09:57:13;100600;;;5.48;79
84283;BME280;74440;52.600;21.450;2024-01-25T10:01:18;100600;;;5.49;78
84283;BME280;74440;52.600;21.450;2024-01-25T10:05:21;100600;;;5.55;79
84283;BME280;74440;52.600;21.450;2024-01-25T10:09:23;100600;;;5.46;79
84283;BME280;74440;52.600;21.450;2024-01-25T10:13:26;100600;;;5.55;78
84283;BME280;74440;52.600;21.450;2024-01-25T10:17:28;100600;;;5.62;78
84283;BME280;74440;52.600;21.450;2024-01-25T10:21:30;100600;;;5.71;78
84283;BME280;74440;52.600;21.450;2024-01-25T10:25:36;100700;;;5.69;78
84283;BME280;74440;52.600;21.450;2024-01-25T10:29:38;100600;;;5.79;78
84283;BME280;74440;52.600;21.450;2024-01-25T10:33:39;100700;;;5.87;78
84283;BME280;74440;52.600;21.450;2024-01-25T10:37:41;100700;;;5.92;77
84283;BME280;74440;52.600;21.450;2024-01-25T10:41:53;100700;;;5.95;77
84283;BME280;74440;52.600;21.450;2024-01-25T10:45:55;100700;;;5.82;78
84283;BME280;74440;52.600;21.450;2024-01-25T10:49:59;100700;;;5.80;78
84283;BME280;74440;52.600;21.450;2024-01-25T10:54:01;100700;;;5.84;78
84283;BME280;74440;52.600;21.450;2024-01-25T10:58:08;100700;;;5.88;77
84283;BME280;74440;52.600;21.450;2024-01-25T11:02:24;100700;;;5.87;78
84283;BME280;74440;52.600;21.450;2024-01-25T11:06:27;100700;;;5.71;78
84283;BME280;74440;52.600;21.450;2024-01-25T11:10:34;100700;;;5.68;78
84283;BME280;74440;52.600;21.450;2024-01-25T11:14:38;100700;;;5.65;77
84283;BME280;74440;52.600;21.450;2024-01-25T11:22:56;100700;;;5.65;77
84283;BME280;74440;52.600;21.450;2024-01-25T11:27:00;100700;;;5.54;78
84283;BME280;74440;52.600;21.450;2024-01-25T11:31:03;100800;;;5.61;76
84283;BME280;74440;52.600;21.450;2024-01-25T11:35:05;100800;;;5.60;74
84283;BME280;74440;52.600;21.450;2024-01-25T11:39:15;100800;;;5.66;73
84283;BME280;74440;52.600;21.450;2024-01-25T11:43:27;100800;;;5.64;71
84283;BME280;74440;52.600;21.450;2024-01-25T11:47:28;100800;;;5.59;71
84283;BME280;74440;52.600;21.450;2024-01-25T11:51:30;100800;;;5.68;70
84283;BME280;74440;52.600;21.450;2024-01-25T11:55:31;100800;;;5.77;69
84283;BME280;74440;52.600;21.450;2024-01-25T11:59:34;100800;;;5.93;69
84283;BME280;74440;52.600;21.450;2024-01-25T12:03:37;100800;;;6.00;68
84283;BME280;74440;52.600;21.450;2024-01-25T12:07:39;100800;;;6.41;69
84283;BME280;74440;52.600;21.450;2024-01-25T12:11:41;100800;;;6.80;66
84283;BME280;74440;52.600;21.450;2024-01-25T12:15:43;100900;;;6.46;67
84283;BME280;74440;52.600;21.450;2024-01-25T12:19:57;100900;;;6.14;64
84283;BME280;74440;52.600;21.450;2024-01-25T12:23:59;100900;;;5.73;65
84283;BME280;74440;52.600;21.450;2024-01-25T12:28:00;100900;;;5.49;66
84283;BME280;74440;52.600;21.450;2024-01-25T12:32:02;100900;;;5.34;65
84283;BME280;74440;52.600;21.450;2024-01-25T12:36:04;100900;;;5.73;65
84283;BME280;74440;52.600;21.450;2024-01-25T12:40:06;100900;;;7.50;62
84283;BME280;74440;52.600;21.450;2024-01-25T12:44:09;100900;;;8.97;57
84283;BME280;74440;52.600;21.450;2024-01-25T12:48:10;100900;;;9.55;53
84283;BME280;74440;52.600;21.450;2024-01-25T12:52:14;100900;;;8.34;55
84283;BME280;74440;52.600;21.450;2024-01-25T12:56:25;100900;;;7.95;56
84283;BME280;74440;52.600;21.450;2024-01-25T13:00:27;100900;;;7.51;57
84283;BME280;74440;52.600;21.450;2024-01-25T13:06:00;100900;;;6.59;59
84283;BME280;74440;52.600;21.450;2024-01-25T13:10:05;101000;;;7.50;58
84283;BME280;74440;52.600;21.450;2024-01-25T13:14:07;101000;;;8.46;57
84283;BME280;74440;52.600;21.450;2024-01-25T13:18:08;101000;;;8.47;56
84283;BME280;74440;52.600;21.450;2024-01-25T13:22:10;101000;;;8.00;55
84283;BME280;74440;52.600;21.450;2024-01-25T13:26:12;101000;;;7.36;57
84283;BME280;74440;52.600;21.450;2024-01-25T13:30:13;101000;;;6.91;58
84283;BME280;74440;52.600;21.450;2024-01-25T13:34:15;101000;;;6.32;59
84283;BME280;74440;52.600;21.450;2024-01-25T13:38:29;101000;;;5.81;61
84283;BME280;74440;52.600;21.450;2024-01-25T13:42:30;101000;;;5.36;62
84283;BME280;74440;52.600;21.450;2024-01-25T13:46:32;101000;;;5.15;63
84283;BME280;74440;52.600;21.450;2024-01-25T13:50:33;101000;;;4.93;64
84283;BME280;74440;52.600;21.450;2024-01-25T13:54:35;101000;;;4.77;65
84283;BME280;74440;52.600;21.450;2024-01-25T13:58:36;101000;;;4.39;66
84283;BME280;74440;52.600;21.450;2024-01-25T14:02:40;101100;;;4.23;67
84283;BME280;74440;52.600;21.450;2024-01-25T14:06:46;101100;;;4.13;68
84283;BME280;74440;52.600;21.450;2024-01-25T14:10:47;101100;;;4.16;68
84283;BME280;74440;52.600;21.450;2024-01-25T14:14:58;101100;;;4.16;69
84283;BME280;74440;52.600;21.450;2024-01-25T14:18:59;101100;;;3.94;69
84283;BME280;74440;52.600;21.450;2024-01-25T14:23:04;101100;;;3.90;69
84283;BME280;74440;52.600;21.450;2024-01-25T14:27:06;101100;;;3.91;69
84283;BME280;74440;52.600;21.450;2024-01-25T14:31:07;101100;;;3.81;69
84283;BME280;74440;52.600;21.450;2024-01-25T14:35:09;101100;;;3.45;70
84283;BME280;74440;52.600;21.450;2024-01-25T14:39:13;101100;;;3.37;70
84283;BME280;74440;52.600;21.450;2024-01-25T14:43:15;101100;;;3.30;71
84283;BME280;74440;52.600;21.450;2024-01-25T14:47:16;101100;;;3.31;71
84283;BME280;74440;52.600;21.450;2024-01-25T14:51:27;101100;;;3.29;71
84283;BME280;74440;52.600;21.450;2024-01-25T14:55:29;101100;;;3.05;72
84283;BME280;74440;52.600;21.450;2024-01-25T14:59:30;101100;;;3.06;72
84283;BME280;74440;52.600;21.450;2024-01-25T15:03:32;101100;;;3.12;72
84283;BME280;74440;52.600;21.450;2024-01-25T15:07:34;101100;;;3.18;72
84283;BME280;74440;52.600;21.450;2024-01-25T15:11:36;101100;;;2.92;73
84283;BME280;74440;52.600;21.450;2024-01-25T15:15:37;101200;;;2.86;73
84283;BME280;74440;52.600;21.450;2024-01-25T15:19:39;101200;;;2.84;73
84283;BME280;74440;52.600;21.450;2024-01-25T15:23:41;101200;;;2.86;73
84283;BME280;74440;52.600;21.450;2024-01-25T15:27:57;101200;;;2.78;73
84283;BME280;74440;52.600;21.450;2024-01-25T15:31:59;101200;;;2.52;73
84283;BME280;74440;52.600;21.450;2024-01-25T15:36:00;101200;;;2.52;73
84283;BME280;74440;52.600;21.450;2024-01-25T15:40:02;101200;;;2.53;73
84283;BME280;74440;52.600;21.450;2024-01-25T15:44:12;101200;;;2.65;73
84283;BME280;74440;52.600;21.450;2024-01-25T15:48:28;101200;;;2.70;73
84283;BME280;74440;52.600;21.450;2024-01-25T15:52:30;101300;;;2.53;73
84283;BME280;74440;52.600;21.450;2024-01-25T15:56:32;101300;;;2.56;73
84283;BME280;74440;52.600;21.450;2024-01-25T16:00:34;101300;;;2.61;73
84283;BME280;74440;52.600;21.450;2024-01-25T16:04:36;101300;;;2.71;73
84283;BME280;74440;52.600;21.450;2024-01-25T16:08:38;101300;;;2.56;73
84283;BME280;74440;52.600;21.450;2024-01-25T16:12:40;101300;;;2.61;73
84283;BME280;74440;52.600;21.450;2024-01-25T16:16:41;101300;;;2.63;73
84283;BME280;74440;52.600;21.450;2024-01-25T16:20:43;101300;;;2.66;73
84283;BME280;74440;52.600;21.450;2024-01-25T16:24:58;101300;;;2.63;73
84283;BME280;74440;52.600;21.450;2024-01-25T16:28:59;101300;;;2.45;73
84283;BME280;74440;52.600;21.450;2024-01-25T16:33:01;101300;;;2.48;73
84283;BME280;74440;52.600;21.450;2024-01-25T16:37:03;101300;;;2.47;73
84283;BME280;74440;52.600;21.450;2024-01-25T16:41:04;101400;;;2.49;73
84283;BME280;74440;52.600;21.450;2024-01-25T16:45:06;101400;;;2.29;74
84283;BME280;74440;52.600;21.450;2024-01-25T16:49:08;101400;;;2.36;74
84283;BME280;74440;52.600;21.450;2024-01-25T16:53:10;101400;;;2.37;74
84283;BME280;74440;52.600;21.450;2024-01-25T16:57:11;101400;;;2.44;74
84283;BME280;74440;52.600;21.450;2024-01-25T17:01:27;101400;;;2.46;74
84283;BME280;74440;52.600;21.450;2024-01-25T17:05:28;101400;;;2.38;74
84283;BME280;74440;52.600;21.450;2024-01-25T17:09:30;101400;;;2.38;74
84283;BME280;74440;52.600;21.450;2024-01-25T17:13:32;101400;;;2.42;74
84283;BME280;74440;52.600;21.450;2024-01-25T17:17:34;101400;;;2.47;74
84283;BME280;74440;52.600;21.450;2024-01-25T17:21:36;101400;;;2.27;74
84283;BME280;74440;52.600;21.450;2024-01-25T17:25:37;101400;;;2.28;74
84283;BME280;74440;52.600;21.450;2024-01-25T17:29:39;101400;;;2.30;74
84283;BME280;74440;52.600;21.450;2024-01-25T17:33:40;101400;;;2.34;73
84283;BME280;74440;52.600;21.450;2024-01-25T17:37:56;101400;;;2.30;74
84283;BME280;74440;52.600;21.450;2024-01-25T17:41:58;101400;;;2.15;74
84283;BME280;74440;52.600;21.450;2024-01-25T17:46:00;101400;;;2.18;74
84283;BME280;74440;52.600;21.450;2024-01-25T17:50:02;101400;;;2.20;73
84283;BME280;74440;52.600;21.450;2024-01-25T17:54:04;101400;;;2.23;73
84283;BME280;74440;52.600;21.450;2024-01-25T17:58:05;101400;;;2.07;74
84283;BME280;74440;52.600;21.450;2024-01-25T18:02:07;101400;;;2.08;74
84283;BME280;74440;52.600;21.450;2024-01-25T18:06:08;101400;;;2.11;74
84283;BME280;74440;52.600;21.450;2024-01-25T18:10:10;101400;;;2.17;74
84283;BME280;74440;52.600;21.450;2024-01-25T18:14:26;101400;;;2.19;74
84283;BME280;74440;52.600;21.450;2024-01-25T18:18:27;101400;;;2.06;74
84283;BME280;74440;52.600;21.450;2024-01-25T18:22:29;101400;;;2.10;74
84283;BME280;74440;52.600;21.450;2024-01-25T18:26:30;101500;;;2.10;74
84283;BME280;74440;52.600;21.450;2024-01-25T18:30:32;101500;;;2.18;74
84283;BME280;74440;52.600;21.450;2024-01-25T18:34:34;101500;;;2.04;74
84283;BME280;74440;52.600;21.450;2024-01-25T18:38:35;101500;;;2.04;74
84283;BME280;74440;52.600;21.450;2024-01-25T18:42:37;101500;;;2.07;74
84283;BME280;74440;52.600;21.450;2024-01-25T18:46:38;101500;;;2.13;74
84283;BME280;74440;52.600;21.450;2024-01-25T18:50:56;101500;;;2.15;74
84283;BME280;74440;52.600;21.450;2024-01-25T18:54:58;101500;;;2.02;74
84283;BME280;74440;52.600;21.450;2024-01-25T18:59:00;101500;;;2.02;74
84283;BME280;74440;52.600;21.450;2024-01-25T19:03:03;101500;;;2.04;74
84283;BME280;74440;52.600;21.450;2024-01-25T19:07:05;101500;;;2.11;74
84283;BME280;74440;52.600;21.450;2024-01-25T19:11:06;101500;;;1.95;75
84283;BME280;74440;52.600;21.450;2024-01-25T19:15:08;101500;;;2.00;75
84283;BME280;74440;52.600;21.450;2024-01-25T19:19:10;101500;;;2.04;74
84283;BME280;74440;52.600;21.450;2024-01-25T19:23:12;101500;;;2.10;74
84283;BME280;74440;52.600;21.450;2024-01-25T19:27:25;101500;;;2.14;75
84283;BME280;74440;52.600;21.450;2024-01-25T19:31:27;101500;;;2.00;75
84283;BME280;74440;52.600;21.450;2024-01-25T19:35:29;101500;;;2.04;75
84283;BME280;74440;52.600;21.450;2024-01-25T19:39:30;101500;;;2.08;74
84283;BME280;74440;52.600;21.450;2024-01-25T19:43:32;101500;;;2.16;74
84283;BME280;74440;52.600;21.450;2024-01-25T19:47:34;101500;;;1.99;75
84283;BME280;74440;52.600;21.450;2024-01-25T19:51:35;101600;;;2.02;75
84283;BME280;74440;52.600;21.450;2024-01-25T19:55:37;101600;;;2.04;74
84283;BME280;74440;52.600;21.450;2024-01-25T19:59:38;101600;;;2.08;74
84283;BME280;74440;52.600;21.450;2024-01-25T20:03:54;101600;;;2.10;74
84283;BME280;74440;52.600;21.450;2024-01-25T20:07:58;101600;;;1.97;74
84283;BME280;74440;52.600;21.450;2024-01-25T20:12:01;101600;;;2.02;74
84283;BME280;74440;52.600;21.450;2024-01-25T20:16:03;101600;;;2.06;74
84283;BME280;74440;52.600;21.450;2024-01-25T20:20:06;101600;;;2.14;74
84283;BME280;74440;52.600;21.450;2024-01-25T20:24:08;101600;;;1.97;75
84283;BME280;74440;52.600;21.450;2024-01-25T20:28:09;101600;;;1.94;75
84283;BME280;74440;52.600;21.450;2024-01-25T20:32:11;101600;;;1.97;75
84283;BME280;74440;52.600;21.450;2024-01-25T20:36:12;101600;;;2.02;75
84283;BME280;74440;52.600;21.450;2024-01-25T20:40:24;101600;;;2.03;76
84283;BME280;74440;52.600;21.450;2024-01-25T20:44:26;101600;;;1.88;76
84283;BME280;74440;52.600;21.450;2024-01-25T20:48:27;101600;;;1.84;76
84283;BME280;74440;52.600;21.450;2024-01-25T20:52:29;101600;;;1.87;76
84283;BME280;74440;52.600;21.450;2024-01-25T20:56:30;101600;;;1.90;76
84283;BME280;74440;52.600;21.450;2024-01-25T21:00:32;101600;;;1.71;76
84283;BME280;74440;52.600;21.450;2024-01-25T21:04:34;101600;;;1.72;77
84283;BME280;74440;52.600;21.450;2024-01-25T21:08:36;101600;;;1.75;76
84283;BME280;74440;52.600;21.450;2024-01-25T21:12:39;101600;;;1.78;76
84283;BME280;74440;52.600;21.450;2024-01-25T21:16:54;101600;;;1.75;76
84283;BME280;74440;52.600;21.450;2024-01-25T21:20:56;101600;;;1.59;76
84283;BME280;74440;52.600;21.450;2024-01-25T21:24:57;101600;;;1.58;76
84283;BME280;74440;52.600;21.450;2024-01-25T21:28:59;101600;;;1.59;76
84283;BME280;74440;52.600;21.450;2024-01-25T21:33:00;101600;;;1.60;75
84283;BME280;74440;52.600;21.450;2024-01-25T21:37:02;101700;;;1.42;75
84283;BME280;74440;52.600;21.450;2024-01-25T21:41:04;101700;;;1.41;75
84283;BME280;74440;52.600;21.450;2024-01-25T21:45:08;101700;;;1.41;75
84283;BME280;74440;52.600;21.450;2024-01-25T21:49:10;101700;;;1.40;75
84283;BME280;74440;52.600;21.450;2024-01-25T21:53:23;101700;;;1.35;75
84283;BME280;74440;52.600;21.450;2024-01-25T21:57:25;101700;;;1.17;75
84283;BME280;74440;52.600;21.450;2024-01-25T22:01:26;101700;;;1.23;75
84283;BME280;74440;52.600;21.450;2024-01-25T22:05:28;101700;;;1.30;76
84283;BME280;74440;52.600;21.450;2024-01-25T22:09:29;101700;;;1.42;76
84283;BME280;74440;52.600;21.450;2024-01-25T22:13:31;101700;;;1.31;76
84283;BME280;74440;52.600;21.450;2024-01-25T22:17:33;101700;;;1.38;76
84283;BME280;74440;52.600;21.450;2024-01-25T22:21:34;101700;;;1.45;76
84283;BME280;74440;52.600;21.450;2024-01-25T22:25:36;101700;;;1.47;76
84283;BME280;74440;52.600;21.450;2024-01-25T22:29:52;101700;;;1.50;76
84283;BME280;74440;52.600;21.450;2024-01-25T22:33:55;101700;;;1.36;76
84283;BME280;74440;52.600;21.450;2024-01-25T22:37:57;101700;;;1.41;76
84283;BME280;74440;52.600;21.450;2024-01-25T22:41:58;101700;;;1.46;76
84283;BME280;74440;52.600;21.450;2024-01-25T22:46:00;101700;;;1.54;75
84283;BME280;74440;52.600;21.450;2024-01-25T22:50:02;101700;;;1.40;76
84283;BME280;74440;52.600;21.450;2024-01-25T22:54:03;101700;;;1.43;75
84283;BME280;74440;52.600;21.450;2024-01-25T22:58:05;101800;;;1.48;75
84283;BME280;74440;52.600;21.450;2024-01-25T23:02:07;101800;;;1.53;75
84283;BME280;74440;52.600;21.450;2024-01-25T23:06:22;101800;;;1.58;75